Adel, IA (50003)

5:31 PM CDT on October 01, 2014 (GMT -0500)
Adel IA | Change Station
CLOSE
Current Station
Personal Weather Station
Location: Adel, IA
Elevation: 1070 ft
Nearby Weather Stations

Elev 1070 ft 41.61 °N, 94.02 °W | Updated 4 minutes ago

Mostly Cloudy
Mostly Cloudy
70.5 °F
Feels Like 71 °F
N
4.2
Wind Variable Wind from West

Today
High -- | Low -- °F
--% Chance of Precip.
Yesterday
High -- | Low -- °F
Precip. -- in
7:12 AM 6:57 PM
First Quarter, 51% visible
Pressure 29.75 in
Visibility 10.0 miles
Clouds Scattered Clouds 2600 ft
Heat Index 71 °F
Dew Point 64 °F
Humidity 80%
Rainfall 1.19 in
Snow Depth Not available.
UV 1 out of 12
Pollen .40 out of 12
Air Quality Not available.
Flu Activity Not available.
METAR KPRO 012215Z AUTO 14003KT 10SM SCT026 22/18 A2975 RMK AO2 T02170179

More Conditions Fewer Conditions

Pressure 29.75 in
Visibility 10.0 miles
Clouds Scattered Clouds 2600 ft
Heat Index 71 °F
Dew Point 64 °F
Humidity 80%
Rainfall 1.19 in
Snow Depth Not available.
UV 1 out of 12
Pollen .40 out of 12
Air Quality Not available.
Flu Activity Not available.
METAR KPRO 012215Z AUTO 14003KT 10SM SCT026 22/18 A2975 RMK AO2 T02170179

More Conditions Fewer Conditions

10-Day Weather Forecast

Almanac

Astronomy

Oct. 01, 2014 Rise Set
Actual Time 7:12 AM CDT 6:57 PM CDT
Civil Twilight 6:45 AM CDT 7:25 PM CDT
Nautical Twilight 6:13 AM CDT 7:57 PM CDT
Astronomical Twilight 5:40 AM CDT 8:30 PM CDT
Moon 2:17 PM CDT No Moon Set
Length of Visible Light 12h 40m
Length of Day
11h 44m
Tomorrow will be 2m 45s shorter.
First Quarter, 51% of the Moon is Illuminated
Today
First Quarter
Oct 8
Full
Oct 15
Last Quarter
Oct 23
New
Oct 30
First Quarter

Today's Extremes

State Highs State Lows

Community

WunderPhotos

Upload Photos

1,758,058 photos uploaded!

WunderBlogs® & News

By Dr. Jeff Masters
Director of Meteorology, Weather Underground
By Kari Strenfel
Meteorologist, Weather Underground
By Christopher C. Burt
Weather Historian, Weather Underground
October 1, 2014
October 1, 2014
October 1, 2014

Nearby

Snow Depth

Station Depth Elevation
No new snow has been reported.

Earthquake Activity

City Distance Mag. Time & Date
No recent earthquake activity has been reported nearby.
Minimum magnitude displayed is 2.5.

Coastal Water Temperatures

Place Temperature
No Stations Reporting

Nearby Weather Stations